Aviation Digital Data Service (ADDS)

Output produced by METARs form (2315 UTC 06 February 2016)
found at http://aviationweather.gov/adds/metars/
 
KPBG 061738Z 0618/0718 18010KT P6SM BKN040 
     TEMPO 0618/0621 5SM -SHSN BKN030 
     FM062300 21007KT P6SM BKN050 
     FM071100 27006KT P6SM BKN045 
     FM071400 35006KT P6SM BKN035